Tiempo atmosférico en la estación meteorológica de Barco De Avila, Ávila (1012 m.)



Fecha
DESCASC
Temp. máxima en grados centígrados (hora)
DESCASC
Temp. mínima en grados centígrados (hora)
DESCASC
Temp. media en grados centígrados
DESCASC
Racha de viento máxima en m/sg (hora)
DESCASC
Velocidad máxima media en intervalos de 10 minutos(hora)
DESCASC
Precipitaciones diarias en mm
DESCASC
Precipitaciones de 00:00 a 06:00 en mm
DESCASC
Precipitaciones de 06:00 a 12:00 en mm
DESCASC
Precipitaciones de 12:00 a 18:00 en mm
DESCASC
Precipitaciones de 18:00 a 24:00 en mm
DESCASC
18-08-2019 29.8 (16:50) 8.6 (08:00) 19.2 9.44 (16:20) 6.39 (16:20) 0 0 0 0 0
17-08-2019 31.8 (16:20) 10.7 (07:20) 21.2 9.44 (16:20) 5.83 (17:00) 0 0 0 0 0
16-08-2019 32.2 (16:30) 12 (08:00) 22.1 7.78 (15:40) 5.28 (16:50) 0 0 0 0 0
15-08-2019 31.9 (16:50) 11.3 (00:00) 21.6 6.67 (17:00) 3.33 (17:00) 0 0 0 0 0
14-08-2019 30.4 (16:20) 7.3 (00:00) 18.8 8.33 (16:30) 4.17 (09:20) 0 0 0 0 0
13-08-2019 26.9 (16:50) 6.1 (00:00) 16.5 7.5 (17:30) 3.89 (16:40) 0 0 0 0 0
12-08-2019 22.9 (17:20) 4.1 (00:00) 13.5 9.44 (16:50) 4.72 (16:10) 0 0 0 0 0
11-08-2019 22.6 (16:30) 10.2 (00:00) 16.4 8.61 (14:20) 4.72 (14:20) 0 0 0 0 0
10-08-2019 26.5 (16:40) 7.4 (00:00) 17 9.17 (18:30) 5.28 (18:20) 0 0 0 0 0
09-08-2019 23.1 (15:50) 11.5 (00:00) 17.3 13.61 (15:10) 8.89 (15:10) 1.6 0 0 1.6 0
08-08-2019 28.3 (18:00) 13.5 (00:00) 20.9 11.39 (19:30) 7.22 (14:30) 0 0 0 0 0
07-08-2019 22.4 (00:00) 14.8 (00:00) 18.6 10 (16:10) 6.11 (16:10) 0.6 0 0 0.6 0
06-08-2019 30.1 (14:40) 9.8 (00:00) 20 10.28 (15:50) 6.67 (16:00) 0 0 0 0 0
05-08-2019 30.5 (17:30) 10.4 (00:00) 20.4 9.17 (16:30) 6.11 (14:20) 0 0 0 0 0
04-08-2019 30.3 (16:00) 11 (00:00) 20.6 10 (17:50) 6.39 (17:30) 0 0 0 0 0
03-08-2019 31.1 (17:00) 10.2 (00:00) 20.7 8.33 (14:50) 5.28 (12:00) 0 0 0 0 0
02-08-2019 32 (17:50) 9.8 (00:00) 20.9 8.06 (07:10) 4.44 (20:30) 0 0 0 0 0
01-08-2019 29.6 (15:40) 9.5 (00:00) 19.6 9.44 (17:00) 6.67 (16:30) 0 0 0 0 0
31-07-2019 30.4 (18:00) 7 (00:00) 18.7 8.06 (14:10) 5 (15:50) 0 0 0 0 0
30-07-2019 25.4 (17:30) 5.1 (00:00) 15.2 7.78 (15:30) 4.17 (15:00) 0 0 0 0 0
29-07-2019 27.5 (16:30) 8.7 (00:00) 18.1 10 (19:20) 5.28 (17:00) 0 0 0 0 0
28-07-2019 26.9 (17:50) 9.5 (00:00) 18.2 8.06 (14:50) 4.44 (15:50) 0 0 0 0 0
27-07-2019 23.8 (18:00) 10 (00:00) 16.9 10 (17:00) 5 (17:20) 0.2 0 0.2 0 0
26-07-2019 25.9 (16:50) 15.4 (00:00) 20.6 9.72 (19:40) 5.28 (19:10) 0 0 0 0 0
25-07-2019 29.2 (17:50) 12.6 (00:00) 20.9 11.39 (13:50) 6.94 (15:10) 0 0 0 0 0
24-07-2019 31.7 (17:50) 13.8 (00:00) 22.8 14.72 (15:30) 6.39 (16:20) 0 0 0 0 0
23-07-2019 31.4 (17:30) 16.9 (00:00) 24.1 19.17 (00:20) 10.28 (00:20) 3.8 3.6 0.2 0 0
22-07-2019 35.6 (14:30) 16.7 (00:00) 26.1 17.5 (21:30) 10.28 (21:40) 0 0 0 0 0
21-07-2019 33.1 (16:50) 12.3 (00:00) 22.7 8.33 (14:10) 5 (14:00) 0 0 0 0 0

Gráficas

Temp. máximas Temp. mínimas Temp. medias Precipitaciones Rachas de viento máximas Velocidades máximas media en intervalos de 10 minutos

Datos horarios

Fecha y hora oficial Temperatura (ºC) Velocidad del viento (km/h) Dirección del viento Racha (km/h) Dirección de racha Precipitación (mm) Presión (hPa) Tendencia (hPa) Humedad (%)
2019-08-19 23:00:00 19.8 3 Nordeste 12 Norte 0 -- -- 53
2019-08-19 22:00:00 20.6 4 Norte 18 Norte 0 -- -- 50
2019-08-19 21:00:00 21.5 7 Norte 16 Norte 0 -- -- 49
2019-08-19 20:00:00 22.3 6 Norte 15 Norte 0 -- -- 49
2019-08-19 19:00:00 22.6 8 Norte 16 Norte 0 -- -- 48
2019-08-19 18:00:00 23.7 10 Nordeste 25 Nordeste 0 -- -- 46
2019-08-19 17:00:00 24.5 12 Norte 29 Norte 0 -- -- 45
2019-08-19 16:00:00 26.4 11 Noroeste 22 Norte 0 -- -- 41
2019-08-19 15:00:00 25.3 11 Norte 31 Noroeste 0 -- -- 44
2019-08-19 14:00:00 25.8 13 Norte 26 Nordeste 0 -- -- 42
2019-08-19 13:00:00 23.9 8 Norte 21 Norte 0 -- -- 45
2019-08-19 12:00:00 23.3 8 Norte 19 Norte 0 -- -- 48
2019-08-19 11:00:00 21 3 Nordeste 16 Noroeste 0 -- -- 59
2019-08-19 10:00:00 16.6 8 Sudoeste 13 Sur 0 -- -- 74
2019-08-19 09:00:00 13.2 6 Oeste 11 Oeste 0 -- -- 84
2019-08-19 08:00:00 11.1 8 Sudoeste 12 Sudoeste 0 -- -- 90
2019-08-19 07:00:00 11.9 3 Oeste 7 Oeste 0 -- -- 88
2019-08-19 06:00:00 13.1 4 Oeste 7 Sudoeste 0 -- -- 85
2019-08-19 05:00:00 14.8 4 Oeste 7 Oeste 0 -- -- 80
2019-08-19 04:00:00 17.4 2 Oeste 7 Este 0 -- -- 71
2019-08-19 03:00:00 17.9 0 Calma 7 Norte 0 -- -- 70
2019-08-19 02:00:00 18.5 3 Nordeste 6 Este 0 -- -- 68
2019-08-19 01:00:00 19.2 4 Nordeste 10 Nordeste 0 -- -- 65
2019-08-19 00:00:00 19.9 5 Nordeste 11 Norte 0 -- -- 62
2019-08-18 23:00:00 20.2 4 Nordeste 8 Nordeste 0 -- -- 59
2019-08-18 22:00:00 21.7 0 Calma 17 Noroeste 0 -- -- 47
2019-08-18 21:00:00 24.7 7 Oeste 20 Oeste 0 -- -- 42
2019-08-18 20:00:00 27.3 10 Oeste 22 Oeste 0 -- -- 33
2019-08-18 19:00:00 28.7 11 Oeste 20 Sudoeste 0 -- -- 29
2019-08-18 18:00:00 27.2 15 Oeste 31 Sudoeste 0 -- -- 31
2019-08-18 17:00:00 28.8 19 Sudoeste 34 Oeste 0 -- -- 28
2019-08-18 16:00:00 29.4 18 Sudoeste 31 Oeste 0 -- -- 22
2019-08-18 15:00:00 28.6 16 Sudoeste 29 Oeste 0 -- -- 23
2019-08-18 14:00:00 27.4 15 Oeste 30 Oeste 0 -- -- 32
2019-08-18 13:00:00 26.6 10 Oeste 19 Noroeste 0 -- -- 32
2019-08-18 12:00:00 25.8 5 Norte 17 Nordeste 0 -- -- 36
2019-08-18 11:00:00 21.9 3 Nordeste 11 Sur 0 -- -- 47
2019-08-18 10:00:00 17.4 6 Sudoeste 10 Sudoeste 0 -- -- 56
2019-08-18 09:00:00 12.5 8 Sudoeste 13 Sudoeste 0 -- -- 71
2019-08-18 08:00:00 8.6 2 Sudoeste 9 Este 0 -- -- 75
2019-08-18 07:00:00 10.6 5 Oeste 12 Sudoeste 0 -- -- 72
2019-08-18 06:00:00 10.8 11 Sudoeste 16 Sudoeste 0 -- -- 71
2019-08-18 05:00:00 10.6 8 Oeste 11 Sudoeste 0 -- -- 70
2019-08-18 04:00:00 11.8 2 Sudoeste 13 Oeste 0 -- -- 65
2019-08-18 03:00:00 12.3 9 Sudoeste 11 Sudoeste 0 -- -- 65
2019-08-18 02:00:00 13.9 6 Sudoeste 9 Sudoeste 0 -- -- 61
2019-08-18 01:00:00 16.3 4 Sudoeste 15 Sudoeste 0 -- -- 48
2019-08-18 00:00:00 17.3 9 Oeste 14 Oeste 0 -- -- 52
2019-08-17 23:00:00 20.3 10 Sudoeste 15 Sudoeste 0 -- -- 44
2019-08-17 22:00:00 22.5 7 Sudoeste 16 Oeste 0 -- -- 41
2019-08-17 21:00:00 27.8 8 Oeste 19 Sudoeste 0 -- -- 28
2019-08-17 20:00:00 30 14 Oeste 26 Oeste 0 -- -- 24
2019-08-17 19:00:00 31.1 17 Oeste 32 Sudoeste 0 -- -- 23
2019-08-17 18:00:00 31.5 19 Sudoeste 33 Oeste 0 -- -- 21
2019-08-17 17:00:00 31.5 21 Sudoeste 34 Oeste 0 -- -- 22
2019-08-17 16:00:00 31.6 20 Sudoeste 31 Sudoeste 0 -- -- 23
2019-08-17 15:00:00 31.2 19 Oeste 31 Sudoeste 0 -- -- 22
2019-08-17 14:00:00 30.9 18 Oeste 31 Sudoeste 0 -- -- 25
2019-08-17 13:00:00 30 15 Sudoeste 23 Oeste 0 -- -- 27
2019-08-17 12:00:00 28.6 4 Norte 10 Norte 0 -- -- 31
2019-08-17 11:00:00 24.5 2 Este 5 Este 0 -- -- 39
2019-08-17 10:00:00 19.1 4 Sudoeste 12 Sudoeste 0 -- -- 53
2019-08-17 09:00:00 13.6 9 Sudoeste 19 Sudoeste 0 -- -- 72
2019-08-17 08:00:00 11.4 14 Sudoeste 19 Sudoeste 0 -- -- 77
2019-08-17 07:00:00 11.4 14 Sudoeste 19 Sudoeste 0 -- -- 77
2019-08-17 06:00:00 12.2 10 Sudoeste 17 Sudoeste 0 -- -- 72
2019-08-17 05:00:00 12.3 8 Sudoeste 13 Sudoeste 0 -- -- 73
2019-08-17 04:00:00 12.6 5 Sudoeste 13 Sudoeste 0 -- -- 73
2019-08-17 03:00:00 13.1 5 Sudoeste 11 Oeste 0 -- -- 72
2019-08-17 02:00:00 14.6 5 Oeste 10 Sudoeste 0 -- -- 67
2019-08-17 01:00:00 16.6 6 Oeste 9 Oeste 0 -- -- 60
2019-08-17 00:00:00 18 6 Oeste 10 Oeste 0 -- -- 61
2019-08-16 23:00:00 20.2 5 Sudoeste 10 Oeste 0 -- -- 52
2019-08-16 22:00:00 24.2 0 Calma 13 Oeste 0 -- -- 42
2019-08-16 21:00:00 27.9 5 Oeste 21 Sudoeste 0 -- -- 33
2019-08-16 20:00:00 30.1 11 Oeste 24 Sudoeste 0 -- -- 28
2019-08-16 19:00:00 31 17 Sudoeste 26 Sudoeste 0 -- -- 29
2019-08-16 18:00:00 31.9 14 Oeste 28 Sudoeste 0 -- -- 28
2019-08-16 17:00:00 32 15 Sudoeste 27 Sudoeste 0 -- -- 24
2019-08-16 16:00:00 32 14 Sudoeste 28 Sudoeste 0 -- -- 25
2019-08-16 15:00:00 31.6 12 Oeste 24 Sudoeste 0 -- -- 26
2019-08-16 14:00:00 30.9 12 Oeste 22 Oeste 0 -- -- 29
2019-08-16 13:00:00 30 5 Sudeste 19 Norte 0 -- -- 32
2019-08-16 12:00:00 27.4 11 Norte 19 Norte 0 -- -- 36
2019-08-16 11:00:00 24.1 2 Sudeste 9 Sudeste 0 -- -- 44
2019-08-16 10:00:00 19.1 5 Oeste 9 Oeste 0 -- -- 59
2019-08-16 09:00:00 14.6 3 Sudoeste 11 Sudoeste 0 -- -- 72
2019-08-16 08:00:00 12 6 Sudoeste 14 Sudoeste 0 -- -- 81
2019-08-16 07:00:00 12.8 10 Sudoeste 17 Sudoeste 0 -- -- 77
2019-08-16 06:00:00 12.6 9 Sudoeste 13 Sudoeste 0 -- -- 79
2019-08-16 05:00:00 13 3 Sudoeste 13 Sudoeste 0 -- -- 76
2019-08-16 04:00:00 13.5 8 Oeste 11 Oeste 0 -- -- 75
2019-08-16 03:00:00 14.4 4 Sudoeste 12 Oeste 0 -- -- 71
2019-08-16 02:00:00 16 10 Oeste 13 Oeste 0 -- -- 63
2019-08-16 01:00:00 16.4 4 Oeste 11 Sur 0 -- -- 64
2019-08-16 00:00:00 17.5 6 Oeste 12 Oeste 0 -- -- 61
2019-08-15 23:00:00 19.5 7 Oeste 13 Sudoeste 0 -- -- 57
2019-08-15 22:00:00 23 7 Sudoeste 12 Oeste 0 -- -- 47
2019-08-15 21:00:00 28.5 4 Norte 15 Norte 0 -- -- 29
2019-08-15 20:00:00 30.3 6 Norte 22 Nordeste 0 -- -- 26
2019-08-15 19:00:00 31.4 6 Norte 18 Noroeste 0 -- -- 22
2019-08-15 18:00:00 31.6 11 Noroeste 24 Norte 0 -- -- 22
2019-08-15 17:00:00 31.6 12 Nordeste 24 Norte 0 -- -- 24
2019-08-15 16:00:00 31.3 7 Norte 23 Norte 0 -- -- 25
2019-08-15 15:00:00 30.7 9 Noroeste 22 Noroeste 0 -- -- 28
2019-08-15 14:00:00 29.6 6 Norte 19 Norte 0 -- -- 33
2019-08-15 13:00:00 28.2 8 Norte 21 Norte 0 -- -- 37
2019-08-15 12:00:00 26.4 6 Norte 13 Nordeste 0 -- -- 44
2019-08-15 11:00:00 23.8 3 Sur 7 Sudoeste 0 -- -- 52
2019-08-15 10:00:00 19.4 2 Oeste 6 Sudoeste 0 -- -- 63
2019-08-15 09:00:00 15.2 6 Sudoeste 14 Sudoeste 0 -- -- 76
2019-08-15 08:00:00 11.9 9 Sudoeste 13 Sudoeste 0 -- -- 86
2019-08-15 07:00:00 11.7 4 Oeste 7 Sudoeste 0 -- -- 84
2019-08-15 06:00:00 12.7 6 Sudoeste 15 Sudoeste 0 -- -- 79
2019-08-15 05:00:00 12.6 8 Sudoeste 12 Sudoeste 0 -- -- 81
2019-08-15 04:00:00 13.5 6 Oeste 10 Sudoeste 0 -- -- 75
2019-08-15 03:00:00 14.4 7 Oeste 10 Oeste 0 -- -- 69
2019-08-15 02:00:00 15.4 4 Sudoeste 8 Sudoeste 0 -- -- 65
2019-08-15 01:00:00 16.2 5 Oeste 9 Oeste 0 -- -- 61
2019-08-15 00:00:00 17.9 5 Oeste 8 Oeste 0 -- -- 54
2019-08-14 23:00:00 20 3 Oeste 6 Sudoeste 0 -- -- 48
2019-08-14 22:00:00 23.8 2 Sur 11 Nordeste 0 -- -- 36
2019-08-14 21:00:00 27.4 6 Norte 17 Nordeste 0 -- -- 28
2019-08-14 20:00:00 29 8 Norte 23 Norte 0 -- -- 24
2019-08-14 19:00:00 29.8 8 Oeste 24 Nordeste 0 -- -- 23
2019-08-14 18:00:00 30.3 10 Norte 25 Norte 0 -- -- 21
2019-08-14 17:00:00 30.3 9 Norte 30 Noroeste 0 -- -- 21
2019-08-14 16:00:00 30 10 Noroeste 26 Noroeste 0 -- -- 21
2019-08-14 15:00:00 29.1 9 Norte 23 Noroeste 0 -- -- 21
2019-08-14 14:00:00 27.8 10 Norte 24 Nordeste 0 -- -- 22
2019-08-14 13:00:00 26.6 8 Nordeste 18 Norte 0 -- -- 23
2019-08-14 12:00:00 24.9 7 Norte 16 Norte 0 -- -- 26
2019-08-14 11:00:00 21.9 5 Este 11 Este 0 -- -- 32
2019-08-14 10:00:00 17 3 Oeste 24 Sudoeste 0 -- -- 41
2019-08-14 09:00:00 11.5 8 Oeste 17 Sudoeste 0 -- -- 60
2019-08-14 08:00:00 8 7 Oeste 18 Sudoeste 0 -- -- 69
2019-08-14 07:00:00 7.5 11 Sudoeste 18 Sudoeste 0 -- -- 71
2019-08-14 06:00:00 7.8 13 Sudoeste 23 Sudoeste 0 -- -- 69
2019-08-14 05:00:00 8.1 12 Sudoeste 18 Sudoeste 0 -- -- 67
2019-08-14 04:00:00 9.1 9 Sudoeste 17 Sudoeste 0 -- -- 64
2019-08-14 03:00:00 10 15 Sudoeste 21 Sudoeste 0 -- -- 61
2019-08-14 02:00:00 10.7 9 Sudoeste 14 Oeste 0 -- -- 58
2019-08-14 01:00:00 12.1 9 Sudoeste 14 Sudoeste 0 -- -- 56
2019-08-14 00:00:00 13.6 9 Oeste 13 Sudoeste 0 -- -- 52
2019-08-13 23:00:00 15.1 10 Sudoeste 13 Oeste 0 -- -- 50
2019-08-13 22:00:00 20.5 5 Este 13 Norte 0 -- -- 31
2019-08-13 21:00:00 23.4 6 Norte 21 Norte 0 -- -- 25
2019-08-13 20:00:00 25.4 8 Noroeste 21 Noroeste 0 -- -- 23
2019-08-13 19:00:00 26 8 Noroeste 22 Noroeste 0 -- -- 23
2019-08-13 18:00:00 26.4 9 Noroeste 27 Norte 0 -- -- 23
2019-08-13 17:00:00 26.8 9 Noroeste 25 Norte 0 -- -- 23
2019-08-13 16:00:00 26.6 7 Norte 20 Este 0 -- -- 23
2019-08-13 15:00:00 25.6 7 Este 24 Norte 0 -- -- 24
2019-08-13 14:00:00 24.6 9 Nordeste 19 Norte 0 -- -- 24
2019-08-13 13:00:00 23.1 9 Norte 20 Norte 0 -- -- 26
2019-08-13 12:00:00 21.3 10 Norte 17 Norte 0 -- -- 30
2019-08-13 11:00:00 18.4 7 Norte 13 Norte 0 -- -- 37
2019-08-13 10:00:00 14.9 3 Sudeste 10 Sudoeste 0 -- -- 50
2019-08-13 09:00:00 9.5 8 Sudoeste 13 Sudoeste 0 -- -- 65
2019-08-13 08:00:00 6.3 8 Sudoeste 16 Sudoeste 0 -- -- 74
2019-08-13 07:00:00 6.7 10 Sudoeste 14 Sudoeste 0 -- -- 72
2019-08-13 06:00:00 7.2 8 Sudoeste 18 Sudoeste 0 -- -- 70
2019-08-13 05:00:00 6.6 11 Sudoeste 15 Sudoeste 0 -- -- 74
2019-08-13 04:00:00 8 7 Oeste 15 Sudoeste 0 -- -- 69
2019-08-13 03:00:00 9 10 Sudoeste 18 Sudoeste 0 -- -- 66
2019-08-13 02:00:00 9.9 9 Oeste 14 Oeste 0 -- -- 65
2019-08-13 01:00:00 11.1 6 Sudoeste 10 Sudoeste 0 -- -- 61
2019-08-13 00:00:00 12.9 5 Oeste 13 Sudoeste 0 -- -- 54
2019-08-12 23:00:00 15.1 0 Calma 9 Sudoeste 0 -- -- 46
2019-08-12 22:00:00 18.3 3 Norte 15 Norte 0 -- -- 32
2019-08-12 21:00:00 19.3 7 Norte 24 Norte 0 -- -- 30
2019-08-12 20:00:00 21.1 13 Norte 26 Norte 0 -- -- 27
2019-08-12 19:00:00 22.2 14 Norte 30 Norte 0 -- -- 27
2019-08-12 18:00:00 22.8 13 Noroeste 30 Norte 0 -- -- 27
2019-08-12 17:00:00 22.6 14 Norte 34 Norte 0 -- -- 27
2019-08-12 16:00:00 22.2 15 Norte 31 Noroeste 0 -- -- 30
2019-08-12 15:00:00 21.4 11 Norte 28 Noroeste 0 -- -- 30
2019-08-12 14:00:00 20.3 14 Norte 28 Norte 0 -- -- 34
2019-08-12 13:00:00 18.9 10 Nordeste 28 Norte 0 -- -- 38
2019-08-12 12:00:00 17.8 9 Nordeste 17 Norte 0 -- -- 41
2019-08-12 11:00:00 15 6 Norte 12 Norte 0 -- -- 56
2019-08-12 10:00:00 11.2 2 Oeste 5 Sudoeste 0 -- -- 67
2019-08-12 09:00:00 6.8 5 Oeste 9 Oeste 0 -- -- 83
2019-08-12 08:00:00 4.1 3 Sur 8 Oeste 0 -- -- 87
2019-08-12 07:00:00 5.5 5 Oeste 9 Oeste 0 -- -- 87
2019-08-12 06:00:00 6.2 4 Oeste 5 Sudoeste 0 -- -- 87
2019-08-12 05:00:00 7.6 5 Sudoeste 9 Sudoeste 0 -- -- 82
2019-08-12 04:00:00 8.7 3 Sudoeste 5 Sudoeste 0 -- -- 77
2019-08-12 03:00:00 10.4 0 Calma 6 Sudeste 0 -- -- 69
2019-08-12 02:00:00 10.8 3 Este 9 Nordeste 0 -- -- 68
2019-08-12 01:00:00 12.4 4 Nordeste 10 Norte 0 -- -- 58
2019-08-12 00:00:00 11.9 0 Calma 9 Este 0 -- -- 60
2019-08-11 23:00:00 14.6 2 Sudeste 18 Noroeste 0 -- -- 47
2019-08-11 22:00:00 17.4 7 Norte 20 Norte 0 -- -- 39
2019-08-11 21:00:00 19.5 7 Norte 23 Norte 0 -- -- 33
2019-08-11 20:00:00 20.8 12 Norte 23 Norte 0 -- -- 32
2019-08-11 19:00:00 21.6 12 Norte 30 Norte 0 -- -- 31
2019-08-11 18:00:00 22.1 12 Norte 30 Norte 0 -- -- 33
2019-08-11 17:00:00 22.1 15 Norte 30 Norte 0 -- -- 39
2019-08-11 16:00:00 22.2 14 Norte 31 Noroeste 0 -- -- 39
2019-08-11 15:00:00 20.9 14 Norte 31 Norte 0 -- -- 50
2019-08-11 14:00:00 20.1 13 Norte 26 Noroeste 0 -- -- 55
2019-08-11 13:00:00 19.2 13 Norte 24 Norte 0 -- -- 57
2019-08-11 12:00:00 18 10 Norte 21 Norte 0 -- -- 62
2019-08-11 11:00:00 16.1 9 Norte 18 Norte 0 -- -- 70
2019-08-11 10:00:00 14.3 9 Norte 20 Nordeste 0 -- -- 78
2019-08-11 09:00:00 13.3 6 Este 12 Nordeste 0 -- -- 83
2019-08-11 08:00:00 10.2 3 Oeste 10 Oeste 0 -- -- 88
2019-08-11 07:00:00 11.1 5 Sudoeste 8 Sudoeste 0 -- -- 87
2019-08-11 06:00:00 12.9 5 Sur 9 Oeste 0 -- -- 82
2019-08-11 05:00:00 14.8 10 Este 17 Este 0 -- -- 76
2019-08-11 04:00:00 16 6 Este 16 Nordeste 0 -- -- 65
2019-08-11 03:00:00 16.4 7 Este 14 Norte 0 -- -- 61
2019-08-11 02:00:00 15.3 2 Sudeste 6 Sudeste 0 -- -- 75
2019-08-11 01:00:00 15.6 4 Sudoeste 8 Oeste 0 -- -- 75
2019-08-11 00:00:00 16.2 4 Sudoeste 9 Sudoeste 0 -- -- 68
2019-08-10 23:00:00 18.6 0 Calma 9 Oeste 0 -- -- 53
2019-08-10 22:00:00 20.1 7 Oeste 23 Oeste 0 -- -- 41
2019-08-10 21:00:00 21.2 11 Oeste 27 Sudoeste 0 -- -- 37
2019-08-10 20:00:00 21.9 17 Oeste 33 Oeste 0 -- -- 42
2019-08-10 19:00:00 23.5 17 Sudoeste 33 Sudoeste 0 -- -- 39
2019-08-10 18:00:00 24.4 18 Sudoeste 28 Sudoeste 0 -- -- 42
2019-08-10 17:00:00 26.4 15 Oeste 26 Noroeste 0 -- -- 37
2019-08-10 16:00:00 26.1 12 Sudoeste 22 Oeste 0 -- -- 34
2019-08-10 15:00:00 25.3 6 Nordeste 22 Norte 0 -- -- 38
2019-08-10 14:00:00 23.4 8 Norte 20 Norte 0 -- -- 40
2019-08-10 13:00:00 21.1 4 Nordeste 11 Norte 0 -- -- 51
2019-08-10 12:00:00 18.2 3 Nordeste 9 Nordeste 0 -- -- 66
2019-08-10 11:00:00 15.3 2 Noroeste 10 Oeste 0 -- -- 78
2019-08-10 10:00:00 12.7 5 Oeste 8 Sudoeste 0 -- -- 88
2019-08-10 09:00:00 10.7 0 Calma 17 Sudoeste 0 -- -- 88
2019-08-10 08:00:00 9.1 11 Sudoeste 18 Sudoeste 0 -- -- 93
2019-08-10 07:00:00 8 4 Sudoeste 13 Oeste 0 -- -- 96
2019-08-10 06:00:00 7.7 4 Oeste 7 Oeste 0 -- -- 95
2019-08-10 05:00:00 8.3 4 Oeste 9 Sudoeste 0 -- -- 95
2019-08-10 04:00:00 8.4 4 Sudoeste 9 Sudoeste 0 -- -- 94
2019-08-10 03:00:00 9.3 3 Oeste 6 Sudoeste 0 -- -- 93
2019-08-10 02:00:00 10.2 5 Oeste 12 Oeste 0 -- -- 93
2019-08-10 01:00:00 10.8 4 Sudoeste 12 Sudoeste 0 -- -- 91
2019-08-10 00:00:00 11.5 8 Sudoeste 14 Oeste 0 -- -- 89
2019-08-09 23:00:00 13.7 8 Oeste 13 Norte 0 -- -- 87
2019-08-09 22:00:00 16.7 7 Norte 12 Norte 0 -- -- 88
2019-08-09 21:00:00 17.8 7 Nordeste 23 Noroeste 0 -- -- 85
2019-08-09 20:00:00 18.3 16 Oeste 34 Sudoeste 0 -- -- 88
2019-08-09 19:00:00 17.8 18 Sudoeste 35 Oeste 0 -- -- 89
2019-08-09 18:00:00 17.5 24 Oeste 37 Oeste 0 -- -- 88
2019-08-09 17:00:00 19 22 Sudoeste 40 Oeste 1.6 -- -- 89
2019-08-09 16:00:00 22.4 24 Oeste 49 Sudoeste 0 -- -- 74
2019-08-09 15:00:00 22.5 28 Sudoeste 48 Sudoeste 0 -- -- 73
2019-08-09 14:00:00 21.6 26 Oeste 41 Sudoeste 0 -- -- 78
2019-08-09 13:00:00 21.9 22 Sudoeste 37 Sudoeste 0 -- -- 76
2019-08-09 12:00:00 20.7 19 Oeste 31 Oeste 0 -- -- 81
2019-08-09 11:00:00 21 17 Sudoeste 34 Sudoeste 0 -- -- 79
2019-08-09 10:00:00 20.2 21 Sudoeste 43 Sudoeste 0 -- -- 80
2019-08-09 09:00:00 19.5 22 Sudoeste 41 Sudoeste 0 -- -- 81
2019-08-09 08:00:00 18.8 28 Sudoeste 48 Sudoeste 0 -- -- 82
2019-08-09 07:00:00 18.4 27 Sudoeste 44 Sudoeste 0 -- -- 84
2019-08-09 06:00:00 16.9 26 Sudoeste 36 Sudoeste 0 -- -- 89
2019-08-09 05:00:00 17.4 26 Sudoeste 39 Sudoeste 0 -- -- 86
2019-08-09 04:00:00 18.4 25 Sudoeste 36 Sudoeste 0 -- -- 79
2019-08-09 03:00:00 19.4 29 Oeste 42 Sudoeste 0 -- -- 73
2019-08-09 02:00:00 19.8 22 Sudoeste 35 Oeste 0 -- -- 72
2019-08-09 01:00:00 20.1 16 Oeste 31 Sudoeste 0 -- -- 70
2019-08-09 00:00:00 21 18 Oeste 30 Oeste 0 -- -- 67
2019-08-08 23:00:00 21.5 10 Oeste 19 Oeste 0 -- -- 66
2019-08-08 22:00:00 23 9 Oeste 24 Sudoeste 0 -- -- 59
2019-08-08 21:00:00 24.6 13 Sudoeste 34 Sudoeste 0 -- -- 53
2019-08-08 20:00:00 26.4 18 Sudoeste 41 Sudoeste 0 -- -- 47
2019-08-08 19:00:00 27.6 23 Sudoeste 37 Sudoeste 0 -- -- 42
2019-08-08 18:00:00 28.3 19 Sudoeste 40 Oeste 0 -- -- 39
2019-08-08 17:00:00 27.6 20 Sudoeste 37 Oeste 0 -- -- 44
2019-08-08 16:00:00 27.2 24 Sudoeste 40 Sudoeste 0 -- -- 46
2019-08-08 15:00:00 26.7 24 Oeste 38 Oeste 0 -- -- 46
2019-08-08 14:00:00 26.2 23 Oeste 39 Sudoeste 0 -- -- 51
2019-08-08 13:00:00 25.2 21 Sudoeste 36 Sudoeste 0 -- -- 55
2019-08-08 12:00:00 23.5 22 Sudoeste 38 Sudoeste 0 -- -- 59
2019-08-08 11:00:00 22.3 25 Sudoeste 36 Sudoeste 0 -- -- 59
2019-08-08 10:00:00 20.7 5 Sudoeste 11 Sudoeste 0 -- -- 63
2019-08-08 09:00:00 16.1 6 Oeste 10 Sudoeste 0 -- -- 74
2019-08-08 08:00:00 13.8 6 Sudoeste 15 Oeste 0 -- -- 80
2019-08-08 07:00:00 13.9 7 Oeste 16 Sudoeste 0 -- -- 79
2019-08-08 06:00:00 14.2 12 Sudoeste 19 Sur 0 -- -- 76
2019-08-08 05:00:00 13.7 8 Sudoeste 12 Sudoeste 0 -- -- 79
2019-08-08 04:00:00 16.3 4 Oeste 12 Sudoeste 0 -- -- 74
2019-08-08 03:00:00 16.7 3 Sur 10 Oeste 0 -- -- 75
2019-08-08 02:00:00 16 6 Sudoeste 14 Sudoeste 0 -- -- 81
2019-08-08 01:00:00 16.8 7 Sudoeste 17 Sudoeste 0 -- -- 76
2019-08-08 00:00:00 16.8 7 Sur 12 Sudoeste 0 -- -- 76
2019-08-07 23:00:00 17.1 6 Sudoeste 24 Oeste 0 -- -- 76
2019-08-07 22:00:00 18 14 Sudoeste 24 Sudoeste 0 -- -- 73
2019-08-07 21:00:00 21.3 13 Oeste 24 Oeste 0 -- -- 55
2019-08-07 20:00:00 21.2 12 Oeste 21 Sudoeste 0 -- -- 58
2019-08-07 19:00:00 19.6 12 Oeste 22 Oeste 0 -- -- 65
2019-08-07 18:00:00 20.3 6 Oeste 15 Noroeste 0 -- -- 66
2019-08-07 17:00:00 19.1 8 Oeste 36 Sudoeste 0 -- -- 74
2019-08-07 16:00:00 18.9 20 Sudoeste 35 Sudoeste 0.2 -- -- 70
2019-08-07 15:00:00 18.9 9 Sudoeste 17 Sudoeste 0.2 -- -- 77
2019-08-07 14:00:00 18.6 10 Oeste 28 Sudoeste 0.2 -- -- 75
2019-08-07 13:00:00 18.5 12 Oeste 26 Oeste 0 -- -- 77
2019-08-07 12:00:00 20.4 4 Sudoeste 8 Sudoeste 0 -- -- 68
2019-08-07 11:00:00 19.5 6 Sudoeste 17 Oeste 0 -- -- 71
2019-08-07 10:00:00 18.2 5 Sudoeste 8 Sudoeste 0 -- -- 75
2019-08-07 09:00:00 17.7 4 Nordeste 15 Norte 0 -- -- 76
2019-08-07 08:00:00 14.9 5 Este 7 Este 0 -- -- 82
2019-08-07 07:00:00 15.6 0 Calma 4 Oeste 0 -- -- 80
2019-08-07 06:00:00 16.1 3 Oeste 9 Sudoeste 0 -- -- 79
2019-08-07 05:00:00 16.6 4 Sudoeste 14 Oeste 0 -- -- 75
2019-08-07 04:00:00 17.4 6 Oeste 14 Sudoeste 0 -- -- 72
2019-08-07 03:00:00 17.3 4 Sudoeste 11 Oeste 0 -- -- 70
2019-08-07 02:00:00 18.9 5 Oeste 9 Nordeste 0 -- -- 65
2019-08-07 01:00:00 21.5 5 Nordeste 13 Nordeste 0 -- -- 60
2019-08-07 00:00:00 22.4 8 Nordeste 17 Nordeste 0 -- -- 56
2019-08-06 23:00:00 22.4 6 Noroeste 11 Norte 0 -- -- 48
2019-08-06 22:00:00 23.5 9 Sudoeste 21 Oeste 0 -- -- 47
2019-08-06 21:00:00 25.3 14 Oeste 24 Sudoeste 0 -- -- 40
2019-08-06 20:00:00 26.6 17 Oeste 31 Sudoeste 0 -- -- 35
2019-08-06 19:00:00 27.9 17 Oeste 32 Sudoeste 0 -- -- 31
2019-08-06 18:00:00 28.1 20 Sudoeste 37 Oeste 0 -- -- 31
2019-08-06 17:00:00 29.3 21 Sudoeste 35 Sudoeste 0 -- -- 30
2019-08-06 16:00:00 29.8 24 Sudoeste 37 Sudoeste 0 -- -- 30
2019-08-06 15:00:00 29.9 21 Oeste 33 Sudoeste 0 -- -- 29
2019-08-06 14:00:00 29.7 19 Oeste 31 Sudoeste 0 -- -- 28
2019-08-06 13:00:00 28.4 20 Oeste 32 Sudoeste 0 -- -- 29
2019-08-06 12:00:00 27.3 15 Sudoeste 27 Sudoeste 0 -- -- 32
2019-08-06 11:00:00 24.1 5 Este 12 Sudoeste 0 -- -- 38
2019-08-06 10:00:00 19.4 5 Oeste 17 Sudoeste 0 -- -- 47
2019-08-06 09:00:00 14.3 10 Sudoeste 15 Sudoeste 0 -- -- 57
2019-08-06 08:00:00 10.1 8 Sudoeste 11 Sudoeste 0 -- -- 74
2019-08-06 07:00:00 10.5 3 Sudoeste 19 Sudoeste 0 -- -- 71
2019-08-06 06:00:00 11.4 13 Sudoeste 17 Sudoeste 0 -- -- 66
2019-08-06 05:00:00 11.1 5 Sudoeste 15 Sudoeste 0 -- -- 66
2019-08-06 04:00:00 11.9 10 Sudoeste 15 Sudoeste 0 -- -- 61
2019-08-06 03:00:00 12 6 Sudoeste 12 Oeste 0 -- -- 62
2019-08-06 02:00:00 13.3 5 Oeste 12 Sudoeste 0 -- -- 57
2019-08-06 01:00:00 14.4 6 Oeste 11 Oeste 0 -- -- 54
2019-08-06 00:00:00 16.7 7 Oeste 10 Oeste 0 -- -- 48
2019-08-05 23:00:00 19 6 Sudoeste 11 Sudoeste 0 -- -- 43
2019-08-05 22:00:00 23.1 8 Sudoeste 21 Oeste 0 -- -- 32
2019-08-05 21:00:00 26.3 13 Oeste 24 Oeste 0 -- -- 27
2019-08-05 20:00:00 28.6 14 Oeste 29 Oeste 0 -- -- 24
2019-08-05 19:00:00 29.8 16 Oeste 28 Sudoeste 0 -- -- 20
2019-08-05 18:00:00 30.2 17 Oeste 30 Sudoeste 0 -- -- 21
2019-08-05 17:00:00 30.3 18 Oeste 33 Sudoeste 0 -- -- 21
2019-08-05 16:00:00 30.2 20 Oeste 31 Sudoeste 0 -- -- 22
2019-08-05 15:00:00 30 17 Sudoeste 33 Oeste 0 -- -- 25
2019-08-05 14:00:00 29.5 21 Sudoeste 32 Sudoeste 0 -- -- 21
2019-08-05 13:00:00 29 19 Oeste 31 Sudoeste 0 -- -- 22
2019-08-05 12:00:00 27.8 16 Oeste 26 Sudoeste 0 -- -- 23
2019-08-05 11:00:00 24.7 5 Oeste 9 Sudoeste 0 -- -- 35
2019-08-05 10:00:00 19.5 3 Este 10 Sudoeste 0 -- -- 54
2019-08-05 09:00:00 14.2 8 Sudoeste 19 Sudoeste 0 -- -- 72
2019-08-05 08:00:00 10.9 10 Sudoeste 17 Sudoeste 0 -- -- 81
2019-08-05 07:00:00 10.9 9 Sudoeste 13 Sudoeste 0 -- -- 80
2019-08-05 06:00:00 11.1 5 Sudoeste 14 Sudoeste 0 -- -- 79
2019-08-05 05:00:00 12.5 11 Sudoeste 16 Sudoeste 0 -- -- 73
2019-08-05 04:00:00 12.4 5 Oeste 13 Oeste 0 -- -- 72
2019-08-05 03:00:00 13.3 7 Sudoeste 15 Sudoeste 0 -- -- 70
2019-08-05 02:00:00 13.7 9 Sudoeste 13 Oeste 0 -- -- 69
2019-08-05 01:00:00 15.9 5 Oeste 9 Oeste 0 -- -- 62
2019-08-05 00:00:00 17.8 5 Oeste 10 Sudoeste 0 -- -- 55
2019-08-04 23:00:00 19.5 8 Sudoeste 18 Sudoeste 0 -- -- 53
2019-08-04 22:00:00 23.2 12 Oeste 22 Sudoeste 0 -- -- 43
2019-08-04 21:00:00 26.3 14 Oeste 28 Oeste 0 -- -- 38
2019-08-04 20:00:00 28.6 14 Oeste 32 Sudoeste 0 -- -- 34
2019-08-04 19:00:00 29.6 20 Sudoeste 34 Sudoeste 0 -- -- 33
2019-08-04 18:00:00 30.1 23 Sudoeste 36 Sudoeste 0 -- -- 28
2019-08-04 17:00:00 30.3 22 Sudoeste 33 Sudoeste 0 -- -- 31
2019-08-04 16:00:00 30.3 19 Sudoeste 33 Sudoeste 0 -- -- 30
2019-08-04 15:00:00 29.6 20 Sudoeste 35 Oeste 0 -- -- 32
2019-08-04 14:00:00 29 18 Oeste 32 Oeste 0 -- -- 34
2019-08-04 13:00:00 28.1 18 Sudoeste 30 Sudoeste 0 -- -- 35
2019-08-04 12:00:00 27.8 8 Oeste 14 Oeste 0 -- -- 32
2019-08-04 11:00:00 24.6 3 Este 13 Sudoeste 0 -- -- 41
2019-08-04 10:00:00 20.1 9 Sudoeste 15 Sudoeste 0 -- -- 53
2019-08-04 09:00:00 15 9 Sudoeste 19 Sudoeste 0 -- -- 69
2019-08-04 08:00:00 11.4 13 Sudoeste 24 Sudoeste 0 -- -- 79
2019-08-04 07:00:00 11 11 Sudoeste 16 Oeste 0 -- -- 80
2019-08-04 06:00:00 11.4 9 Sudoeste 14 Oeste 0 -- -- 79
2019-08-04 05:00:00 11.8 5 Sudoeste 9 Sudoeste 0 -- -- 77
2019-08-04 04:00:00 12.7 6 Oeste 10 Sudoeste 0 -- -- 72
2019-08-04 03:00:00 13.4 6 Oeste 10 Sudoeste 0 -- -- 70
2019-08-04 02:00:00 14.9 6 Sudoeste 10 Oeste 0 -- -- 65
2019-08-04 01:00:00 16.3 3 Sudoeste 8 Sudeste 0 -- -- 60
2019-08-04 00:00:00 18.2 4 Sudoeste 14 Oeste 0 -- -- 54
2019-08-03 23:00:00 20 4 Sudoeste 14 Sudoeste 0 -- -- 50
2019-08-03 22:00:00 23.6 5 Sudoeste 19 Oeste 0 -- -- 41
2019-08-03 21:00:00 27 10 Oeste 24 Oeste 0 -- -- 34
2019-08-03 20:00:00 28.9 13 Oeste 26 Oeste 0 -- -- 29
2019-08-03 19:00:00 30.1 15 Oeste 26 Sudoeste 0 -- -- 22
2019-08-03 18:00:00 30.6 17 Sudoeste 29 Sudoeste 0 -- -- 22
2019-08-03 17:00:00 31.1 15 Oeste 29 Sudoeste 0 -- -- 23
2019-08-03 16:00:00 30.7 15 Sudoeste 25 Sudoeste 0 -- -- 24
2019-08-03 15:00:00 29.9 16 Oeste 30 Oeste 0 -- -- 25
2019-08-03 14:00:00 29.5 16 Sudoeste 27 Sudoeste 0 -- -- 26
2019-08-03 13:00:00 28.5 18 Sudoeste 29 Sudoeste 0 -- -- 27
2019-08-03 12:00:00 27.6 19 Sudoeste 29 Sudoeste 0 -- -- 26
2019-08-03 11:00:00 25.1 3 Oeste 11 Oeste 0 -- -- 29
2019-08-03 10:00:00 19.5 5 Sudoeste 12 Sudoeste 0 -- -- 46
2019-08-03 09:00:00 14.7 7 Sudoeste 22 Sudoeste 0 -- -- 59
2019-08-03 08:00:00 12.1 16 Sudoeste 24 Sudoeste 0 -- -- 62
2019-08-03 07:00:00 10.5 11 Sudoeste 15 Sudoeste 0 -- -- 71
2019-08-03 06:00:00 11.2 11 Sudoeste 15 Sudoeste 0 -- -- 68
2019-08-03 05:00:00 11.4 8 Sudoeste 12 Sudoeste 0 -- -- 68
2019-08-03 04:00:00 12.6 9 Oeste 13 Oeste 0 -- -- 64
2019-08-03 03:00:00 13.3 11 Sudoeste 17 Oeste 0 -- -- 61
2019-08-03 02:00:00 14.2 7 Sudoeste 15 Oeste 0 -- -- 60
2019-08-03 01:00:00 15.5 12 Oeste 17 Oeste 0 -- -- 56
2019-08-03 00:00:00 17.3 5 Sudoeste 12 Oeste 0 -- -- 52
2019-08-02 23:00:00 19.9 9 Sudoeste 13 Este 0 -- -- 46
2019-08-02 22:00:00 23.7 7 Sudoeste 18 Noroeste 0 -- -- 35
2019-08-02 21:00:00 27 13 Oeste 24 Oeste 0 -- -- 28
2019-08-02 20:00:00 29.5 13 Oeste 28 Oeste 0 -- -- 25
2019-08-02 19:00:00 31.2 10 Noroeste 23 Noroeste 0 -- -- 23
2019-08-02 18:00:00 31.7 6 Norte 21 Norte 0 -- -- 25
2019-08-02 17:00:00 31.8 13 Noroeste 27 Noroeste 0 -- -- 24
2019-08-02 16:00:00 31.6 6 Norte 23 Noroeste 0 -- -- 24
2019-08-02 15:00:00 30.6 11 Noroeste 25 Noroeste 0 -- -- 24
2019-08-02 14:00:00 30.4 10 Noroeste 22 Norte 0 -- -- 24
2019-08-02 13:00:00 29.4 6 Sudoeste 14 Sudoeste 0 -- -- 23
2019-08-02 12:00:00 27.8 4 Oeste 9 Sudoeste 0 -- -- 27
2019-08-02 11:00:00 23.7 5 Oeste 11 Sudoeste 0 -- -- 41
2019-08-02 10:00:00 19.1 8 Sudoeste 20 Sudoeste 0 -- -- 55
2019-08-02 09:00:00 14.7 12 Sudoeste 24 Sudoeste 0 -- -- 61
2019-08-02 08:00:00 9.9 9 Sudoeste 29 Sudoeste 0 -- -- 80
2019-08-02 07:00:00 11.2 7 Sur 20 Sudoeste 0 -- -- 69
2019-08-02 06:00:00 11.6 12 Oeste 19 Sudoeste 0 -- -- 71
2019-08-02 05:00:00 11.3 3 Sudoeste 9 Sudoeste 0 -- -- 71
2019-08-02 04:00:00 11.9 8 Sudoeste 13 Sudoeste 0 -- -- 71
2019-08-02 03:00:00 12.2 7 Sudoeste 12 Oeste 0 -- -- 70
2019-08-02 02:00:00 13.9 4 Oeste 7 Oeste 0 -- -- 64
2019-08-02 01:00:00 14.9 3 Sur 12 Oeste 0 -- -- 59
2019-08-02 00:00:00 16.8 5 Sudoeste 10 Norte 0 -- -- 54
2019-08-01 23:00:00 19 7 Sudoeste 10 Oeste 0 -- -- 47
2019-08-01 22:00:00 21.6 4 Sur 16 Oeste 0 -- -- 41
2019-08-01 21:00:00 25.5 10 Oeste 24 Oeste 0 -- -- 30
2019-08-01 20:00:00 27.5 15 Oeste 26 Oeste 0 -- -- 25
2019-08-01 19:00:00 28.3 17 Oeste 27 Sudoeste 0 -- -- 22
2019-08-01 18:00:00 29.4 14 Oeste 29 Oeste 0 -- -- 26
2019-08-01 17:00:00 29.1 22 Sudoeste 34 Oeste 0 -- -- 27
2019-08-01 16:00:00 29.3 19 Oeste 32 Oeste 0 -- -- 26
2019-08-01 15:00:00 29 13 Sudoeste 27 Sudoeste 0 -- -- 26
2019-08-01 14:00:00 29.1 6 Sudoeste 19 Este 0 -- -- 24
2019-08-01 13:00:00 27.6 6 Norte 22 Nordeste 0 -- -- 30
2019-08-01 12:00:00 25.6 6 Nordeste 19 Nordeste 0 -- -- 35
2019-08-01 11:00:00 23.2 7 Nordeste 15 Nordeste 0 -- -- 40
2019-08-01 10:00:00 19.1 3 Nordeste 9 Nordeste 0 -- -- 49
2019-08-01 09:00:00 13.1 2 Sudoeste 7 Oeste 0 -- -- 64
2019-08-01 08:00:00 9.7 2 Sudeste 5 Oeste 0 -- -- 78
2019-08-01 07:00:00 10.6 4 Oeste 12 Oeste 0 -- -- 72
2019-08-01 06:00:00 11.2 8 Sudoeste 12 Sudoeste 0 -- -- 72
2019-08-01 05:00:00 12.5 9 Sudoeste 18 Sudoeste 0 -- -- 70
2019-08-01 04:00:00 13.2 12 Sudoeste 16 Sudoeste 0 -- -- 69
2019-08-01 03:00:00 14.4 7 Sudoeste 15 Sudoeste 0 -- -- 64
2019-08-01 02:00:00 15.2 6 Sudoeste 10 Oeste 0 -- -- 63
2019-08-01 01:00:00 16.8 5 Sudoeste 14 Sudoeste 0 -- -- 56
2019-08-01 00:00:00 17.8 5 Sudoeste 8 Sur 0 -- -- 55
2019-07-31 23:00:00 19.2 4 Sur 15 Sudoeste 0 -- -- 54
2019-07-31 22:00:00 21.2 9 Oeste 14 Oeste 0 -- -- 51
2019-07-31 21:00:00 24.9 8 Oeste 14 Oeste 0 -- -- 35
2019-07-31 20:00:00 26.7 9 Oeste 22 Oeste 0 -- -- 31
2019-07-31 19:00:00 28.4 15 Sudoeste 26 Oeste 0 -- -- 26
2019-07-31 18:00:00 30.4 6 Sudoeste 21 Sudoeste 0 -- -- 21
2019-07-31 17:00:00 30 9 Sur 27 Sur 0 -- -- 19
2019-07-31 16:00:00 29.6 16 Sur 28 Sudeste 0 -- -- 20
2019-07-31 15:00:00 28.8 6 Noroeste 29 Norte 0 -- -- 28
2019-07-31 14:00:00 27.1 16 Norte 28 Norte 0 -- -- 29
2019-07-31 13:00:00 25.9 13 Norte 24 Norte 0 -- -- 31
2019-07-31 12:00:00 24.7 8 Norte 18 Nordeste 0 -- -- 31
2019-07-31 11:00:00 21.7 3 Noroeste 7 Este 0 -- -- 37
2019-07-31 10:00:00 17.9 5 Sudeste 7 Este 0 -- -- 48
2019-07-31 09:00:00 12.3 3 Sur 8 Sudoeste 0 -- -- 62
2019-07-31 08:00:00 8.6 8 Sudoeste 18 Sudoeste 0 -- -- 69
2019-07-31 07:00:00 7.8 7 Sudoeste 18 Sudoeste 0 -- -- 73
2019-07-31 06:00:00 7.7 6 Oeste 13 Oeste 0 -- -- 73
2019-07-31 05:00:00 8.3 6 Sudoeste 19 Oeste 0 -- -- 70
2019-07-31 04:00:00 8.8 11 Sudoeste 17 Oeste 0 -- -- 70
2019-07-31 03:00:00 10.1 8 Oeste 19 Sudoeste 0 -- -- 64
2019-07-31 02:00:00 10.9 10 Oeste 17 Oeste 0 -- -- 62
2019-07-31 01:00:00 11.5 9 Oeste 13 Sudoeste 0 -- -- 61
2019-07-31 00:00:00 13.4 7 Oeste 9 Sudoeste 0 -- -- 54
2019-07-30 23:00:00 16.2 4 Sudoeste 10 Norte 0 -- -- 45
2019-07-30 22:00:00 20.4 5 Norte 22 Norte 0 -- -- 31
2019-07-30 21:00:00 22.6 10 Norte 26 Norte 0 -- -- 28
2019-07-30 20:00:00 24.2 14 Norte 23 Norte 0 -- -- 26
2019-07-30 19:00:00 25 13 Norte 26 Norte 0 -- -- 25
2019-07-30 18:00:00 25.2 13 Norte 27 Noroeste 0 -- -- 25
2019-07-30 17:00:00 24.9 11 Norte 27 Norte 0 -- -- 26
2019-07-30 16:00:00 24.4 13 Norte 28 Norte 0 -- -- 26
2019-07-30 15:00:00 23.4 15 Norte 27 Norte 0 -- -- 28
2019-07-30 14:00:00 22.9 10 Norte 26 Oeste 0 -- -- 29
2019-07-30 13:00:00 20.8 10 Noroeste 21 Noroeste 0 -- -- 34
2019-07-30 12:00:00 18.5 8 Nordeste 16 Nordeste 0 -- -- 45
2019-07-30 11:00:00 15.8 3 Oeste 8 Este 0 -- -- 54
2019-07-30 10:00:00 12.9 4 Oeste 8 Sudoeste 0 -- -- 64
2019-07-30 09:00:00 8.9 2 Sur 6 Oeste 0 -- -- 78
2019-07-30 08:00:00 5.5 3 Sudoeste 6 Sudoeste 0 -- -- 87
2019-07-30 07:00:00 5.7 0 Calma 8 Oeste 0 -- -- 85
2019-07-30 06:00:00 6.5 5 Oeste 6 Sudoeste 0 -- -- 84
2019-07-30 05:00:00 7.3 3 Oeste 5 Sudoeste 0 -- -- 80
2019-07-30 04:00:00 8.4 0 Calma 4 Sudoeste 0 -- -- 74
2019-07-30 03:00:00 10.2 0 Calma 9 Este 0 -- -- 68
2019-07-30 02:00:00 11.1 6 Este 9 Este 0 -- -- 62
2019-07-30 01:00:00 13.5 0 Calma 10 Nordeste 0 -- -- 52
2019-07-30 00:00:00 15.8 4 Nordeste 9 Este 0 -- -- 44
2019-07-29 23:00:00 17.6 4 Nordeste 22 Noroeste 0 -- -- 38
2019-07-29 22:00:00 19.6 12 Norte 22 Norte 0 -- -- 34
2019-07-29 21:00:00 21.9 13 Norte 31 Norte 0 -- -- 30
2019-07-29 20:00:00 24.2 11 Norte 36 Norte 0 -- -- 27
2019-07-29 19:00:00 26.6 12 Noroeste 33 Noroeste 0 -- -- 29
2019-07-29 18:00:00 27.3 17 Noroeste 28 Sudoeste 0 -- -- 31
2019-07-29 17:00:00 27.1 19 Oeste 30 Noroeste 0 -- -- 30
2019-07-29 16:00:00 27.3 17 Oeste 31 Oeste 0 -- -- 21
2019-07-29 15:00:00 27.1 11 Oeste 29 Nordeste 0 -- -- 26
2019-07-29 14:00:00 24.7 12 Norte 28 Nordeste 0 -- -- 40
2019-07-29 13:00:00 24 11 Norte 23 Norte 0 -- -- 36
2019-07-29 12:00:00 22 6 Nordeste 19 Norte 0 -- -- 37
2019-07-29 11:00:00 20 9 Nordeste 19 Nordeste 0 -- -- 43
2019-07-29 10:00:00 17.3 10 Nordeste 17 Este 0 -- -- 55
2019-07-29 09:00:00 13 4 Sudoeste 10 Oeste 0 -- -- 74
2019-07-29 08:00:00 9.7 8 Sudoeste 13 Sudoeste 0 -- -- 86
2019-07-29 07:00:00 8.7 9 Sudoeste 12 Sudoeste 0 -- -- 89
2019-07-29 06:00:00 9.5 2 Sudoeste 9 Oeste 0 -- -- 85
2019-07-29 05:00:00 10.4 3 Sudoeste 12 Sudoeste 0 -- -- 82
2019-07-29 04:00:00 11.1 7 Sudoeste 11 Sudoeste -- -- -- 81
2019-07-29 03:00:00 11.8 6 Sudoeste 9 Sudoeste 0 -- -- 80
2019-07-29 02:00:00 13.2 4 Sudeste 10 Noroeste 0 -- -- 72
2019-07-29 01:00:00 14.7 5 Oeste 10 Oeste 0 -- -- 68
2019-07-29 00:00:00 16.2 4 Sudoeste 10 Sudoeste 0 -- -- 63
2019-07-28 23:00:00 17.8 5 Sudoeste 18 Oeste 0 -- -- 58
2019-07-28 22:00:00 21 11 Oeste 15 Oeste 0 -- -- 48
2019-07-28 21:00:00 23.9 10 Sudoeste 20 Oeste 0 -- -- 41
2019-07-28 20:00:00 25.8 10 Oeste 20 Oeste 0 -- -- 36
2019-07-28 19:00:00 26.4 13 Oeste 22 Sudoeste 0 -- -- 33
2019-07-28 18:00:00 26.7 15 Oeste 23 Oeste 0 -- -- 32
2019-07-28 17:00:00 26.5 12 Sudoeste 26 Noroeste 0 -- -- 35
2019-07-28 16:00:00 25.7 14 Noroeste 28 Norte 0 -- -- 35
2019-07-28 15:00:00 24.9 12 Noroeste 29 Noroeste 0 -- -- 38
2019-07-28 14:00:00 24 13 Noroeste 24 Noroeste 0 -- -- 41
2019-07-28 13:00:00 23.8 8 Norte 26 Nordeste 0 -- -- 42
2019-07-28 12:00:00 22.6 7 Norte 18 Norte 0 -- -- 46
2019-07-28 11:00:00 20.8 4 Sur 9 Sudoeste 0 -- -- 52
2019-07-28 10:00:00 17.2 5 Sudoeste 13 Sudoeste 0 -- -- 66
2019-07-28 09:00:00 13.3 9 Sudoeste 17 Sudoeste 0 -- -- 79
2019-07-28 08:00:00 10.6 13 Sudoeste 21 Sudoeste 0 -- -- 85
2019-07-28 07:00:00 9.7 9 Oeste 12 Oeste 0 -- -- 89
2019-07-28 06:00:00 10.4 6 Sudoeste 11 Sudoeste 0 -- -- 88
2019-07-28 05:00:00 12 5 Oeste 8 Oeste 0 -- -- 84
2019-07-28 04:00:00 14.7 4 Noroeste 9 Nordeste 0 -- -- 75
2019-07-28 03:00:00 16.3 4 Norte 10 Este 0 -- -- 69
2019-07-28 02:00:00 17.3 3 Norte 19 Norte 0 -- -- 62
2019-07-28 01:00:00 18.2 4 Norte 12 Norte 0 -- -- 59
2019-07-28 00:00:00 18.9 5 Norte 16 Noroeste 0 -- -- 56
2019-07-27 23:00:00 20.1 8 Noroeste 21 Oeste 0 -- -- 51
2019-07-26 12:00:00 -- -- -- -- -- -- -- -- --
2019-07-26 11:00:00 16.2 9 Norte 20 Norte 0 -- -- 71
2019-07-26 10:00:00 15.6 11 Norte 21 Norte 0 -- -- 79
2019-07-26 09:00:00 15.8 15 Norte 21 Norte 0 -- -- 81
2019-07-26 08:00:00 16.3 9 Norte 19 Norte 0 -- -- 82
2019-07-26 07:00:00 17.4 6 Norte 14 Norte 0 -- -- 81
2019-07-26 06:00:00 17.4 5 Norte 9 Nordeste 0 -- -- 81
2019-07-26 05:00:00 17.7 4 Norte 22 Norte 0 -- -- 79
2019-07-26 04:00:00 18 9 Norte 22 Norte 0 -- -- 80
2019-07-26 03:00:00 18.9 8 Norte 15 Norte 0 -- -- 78
2019-07-26 02:00:00 19.5 8 Nordeste 24 Norte 0 -- -- 74
2019-07-26 01:00:00 20.6 8 Norte 27 Norte 0 -- -- 65
2019-07-26 00:00:00 22.1 9 Norte 16 Norte 0 -- -- 51
2019-07-25 23:00:00 22.4 8 Noroeste 14 Oeste 0 -- -- 45
2019-07-25 22:00:00 23.5 10 Oeste 23 Oeste 0 -- -- 46
2019-07-25 21:00:00 25.3 16 Oeste 29 Oeste 0 -- -- 44
2019-07-25 20:00:00 27.4 18 Sudoeste 30 Sudoeste 0 -- -- 38
2019-07-25 19:00:00 27.5 16 Oeste 32 Sudoeste 0 -- -- 37
2019-07-25 18:00:00 28.9 19 Oeste 29 Oeste 0 -- -- 31
2019-07-25 17:00:00 28.9 13 Oeste 29 Oeste 0 -- -- 32
2019-07-25 16:00:00 27.8 22 Oeste 36 Sudoeste 0 -- -- 34
2019-07-25 15:00:00 28.2 22 Sudoeste 37 Sudoeste 0 -- -- 33
2019-07-25 14:00:00 27.4 15 Sudoeste 41 Sudoeste 0 -- -- 37
2019-07-25 13:00:00 27.2 24 Sudoeste 39 Oeste 0 -- -- 37
2019-07-25 12:00:00 26.1 22 Sudoeste 35 Sudoeste 0 -- -- 40
2019-07-25 11:00:00 25.9 24 Sudoeste 34 Sudoeste 0 -- -- 38
2019-07-25 10:00:00 24.8 18 Sudoeste 26 Sudoeste 0 -- -- 42
2019-07-25 09:00:00 17.1 7 Sudoeste 15 Sudoeste 0 -- -- 71
2019-07-25 08:00:00 13.5 7 Sudoeste 12 Oeste 0 -- -- 80
2019-07-25 07:00:00 12.6 8 Sudoeste 12 Oeste 0 -- -- 83
2019-07-25 06:00:00 13.8 5 Sudoeste 15 Sudoeste 0 -- -- 78
2019-07-25 05:00:00 14.7 7 Sudoeste 10 Sudoeste 0 -- -- 75
2019-07-25 04:00:00 15.3 6 Sudoeste 14 Sudoeste 0 -- -- 73
2019-07-25 03:00:00 15.6 6 Oeste 10 Oeste 0 -- -- 74
2019-07-25 02:00:00 16.8 5 Sudoeste 9 Oeste 0 -- -- 71
2019-07-25 01:00:00 18.5 4 Sur 14 Sudoeste 0 -- -- 63
2019-07-25 00:00:00 19.4 6 Oeste 12 Sudoeste 0 -- -- 65
2019-07-24 23:00:00 21.1 9 Sudoeste 14 Sudoeste 0 -- -- 61
2019-07-24 22:00:00 24.9 4 Sudoeste 17 Oeste 0 -- -- 50
2019-07-24 21:00:00 29 7 Oeste 24 Sur 0 -- -- 38
2019-07-24 20:00:00 30.5 11 Sudoeste 26 Oeste 0 -- -- 31
2019-07-24 19:00:00 31.3 17 Sur 28 Sudoeste 0 -- -- 30
2019-07-24 18:00:00 31.7 17 Sudoeste 32 Sudoeste 0 -- -- 30
2019-07-24 17:00:00 30.7 15 Sudoeste 37 Sudoeste 0 -- -- 32
2019-07-24 16:00:00 31.5 16 Sur 53 Sudeste 0 -- -- 32
2019-07-24 15:00:00 30.9 19 Sur 35 Sur 0 -- -- 30
2019-07-24 14:00:00 30.1 15 Sur 33 Sur 0 -- -- 34
2019-07-24 13:00:00 30.3 18 Sur 29 Sudeste 0 -- -- 33
2019-07-24 12:00:00 29 13 Sur 21 Sur 0 -- -- 38
2019-07-24 11:00:00 26.2 5 Sudoeste 12 Oeste 0 -- -- 48
2019-07-24 10:00:00 22.1 10 Oeste 25 Sudoeste 0 -- -- 58
2019-07-24 09:00:00 17.2 9 Oeste 17 Sudoeste 0 -- -- 77
2019-07-24 08:00:00 14.4 11 Sudoeste 17 Oeste 0 -- -- 84
2019-07-24 07:00:00 14.2 11 Sudoeste 15 Oeste 0 -- -- 85
2019-07-24 06:00:00 14.3 12 Oeste 16 Sudoeste 0 -- -- 87
2019-07-24 05:00:00 15.2 10 Sudoeste 16 Sudoeste 0 -- -- 84
2019-07-24 04:00:00 15.5 13 Sudoeste 20 Oeste 0 -- -- 86
2019-07-24 03:00:00 16.8 10 Sudoeste 18 Sudoeste 0 -- -- 83
2019-07-24 02:00:00 17 5 Oeste 10 Oeste 0 -- -- 87
2019-07-24 01:00:00 17.7 7 Sudoeste 18 Sudoeste 0 -- -- 84
2019-07-24 00:00:00 18.4 13 Sudoeste 21 Sudoeste 0 -- -- 80
2019-07-23 23:00:00 19.3 11 Sur 48 Sudoeste 0 -- -- 70
2019-07-23 22:00:00 24.4 6 Sur 14 Oeste 0 -- -- 55
2019-07-23 21:00:00 28.2 9 Oeste 15 Sudoeste 0 -- -- 41
2019-07-23 20:00:00 30.1 9 Sudoeste 25 Oeste 0 -- -- 37
2019-07-23 19:00:00 30.7 14 Sudoeste 23 Oeste 0 -- -- 35
2019-07-23 18:00:00 31.2 16 Oeste 26 Oeste 0 -- -- 33
2019-07-23 17:00:00 30.8 19 Sur 34 Sur 0 -- -- 35
2019-07-23 16:00:00 30.4 21 Sur 37 Sudoeste 0 -- -- 33
2019-07-23 15:00:00 30.1 19 Sur 32 Sur 0 -- -- 32
2019-07-23 14:00:00 29.3 21 Sur 32 Sudeste 0 -- -- 35
2019-07-23 13:00:00 27.8 21 Sur 33 Sur 0 -- -- 35
2019-07-23 12:00:00 22.4 9 Sudeste 26 Sudeste 0 -- -- 54
2019-07-23 11:00:00 21 9 Sudoeste 57 Sur 0 -- -- 58
2019-07-23 10:00:00 20 12 Sudoeste 23 Sudoeste 0 -- -- 73
2019-07-23 09:00:00 18.4 10 Sudoeste 24 Sudoeste 0 -- -- 73
2019-07-23 08:00:00 16.9 14 Sudoeste 19 Sur 0 -- -- 84
2019-07-23 07:00:00 17.9 3 Sudeste 42 Norte 0.2 -- -- 74
2019-07-23 06:00:00 18.1 5 Este 32 Sudoeste 2 -- -- 73
2019-07-23 05:00:00 21.1 24 Sudoeste 47 Sudoeste 0 -- -- 58
2019-07-23 04:00:00 20 15 Sur 34 Nordeste 0.2 -- -- 65
2019-07-23 03:00:00 21.3 25 Este 40 Este 1.2 -- -- 57
2019-07-23 02:00:00 23.3 14 Sur 44 Este 0 -- -- 48
2019-07-23 01:00:00 25.1 7 Este 69 Sudoeste 0.2 -- -- 36
2019-07-23 00:00:00 26.9 9 Sur 54 Sudeste 0 -- -- 30
2019-07-22 23:00:00 24.2 8 Sur 35 Este 0 -- -- 41
2019-07-22 22:00:00 23.7 26 Sudeste 63 Sur 0 -- -- 42
2019-07-22 21:00:00 31.2 8 Sudoeste 18 Sur 0 -- -- 32
2019-07-22 20:00:00 32.8 12 Sur 27 Sudoeste 0 -- -- 29
2019-07-22 19:00:00 33.7 12 Este 24 Este 0 -- -- 27
2019-07-22 18:00:00 33.2 12 Nordeste 28 Este 0 -- -- 27
2019-07-22 17:00:00 34.5 16 Este 23 Oeste 0 -- -- 25
2019-07-22 16:00:00 34.2 17 Sudoeste 27 Sudoeste 0 -- -- 29
2019-07-22 15:00:00 33.9 20 Sudoeste 32 Sudoeste 0 -- -- 30
2019-07-22 14:00:00 34.7 7 Oeste 14 Oeste 0 -- -- 24
2019-07-22 13:00:00 32.9 8 Oeste 14 Oeste 0 -- -- 27
2019-07-22 12:00:00 30.6 9 Oeste 21 Sur 0 -- -- 33
2019-07-22 11:00:00 26.4 13 Sur 23 Sur 0 -- -- 37
2019-07-22 10:00:00 25.7 13 Sur 22 Sur 0 -- -- 42
2019-07-22 09:00:00 21.9 15 Sudoeste 25 Oeste 0 -- -- 51
2019-07-22 08:00:00 20.1 18 Sudoeste 32 Sur 0 -- -- 54
2019-07-22 07:00:00 19.6 21 Sudoeste 29 Sudoeste 0 -- -- 56
2019-07-22 06:00:00 19.5 15 Sudoeste 21 Sudoeste 0 -- -- 57
2019-07-22 05:00:00 16.8 12 Oeste 18 Oeste 0 -- -- 64
2019-07-22 04:00:00 16.7 9 Sudoeste 15 Sudoeste 0 -- -- 64
2019-07-22 03:00:00 17.2 10 Oeste 16 Oeste 0 -- -- 63
2019-07-22 02:00:00 17.4 9 Sudoeste 12 Sudoeste 0 -- -- 63
2019-07-22 01:00:00 18.5 7 Sudoeste 17 Oeste 0 -- -- 59
2019-07-22 00:00:00 19.8 10 Sudoeste 14 Sudoeste 0 -- -- 58
2019-07-21 23:00:00 22.2 6 Oeste 11 Oeste 0 -- -- 56
2019-07-21 22:00:00 24.8 4 Sudoeste 12 Oeste 0 -- -- 49
2019-07-21 21:00:00 29.4 6 Oeste 14 Sudoeste 0 -- -- 39
2019-07-21 20:00:00 31.3 10 Oeste 20 Sudoeste 0 -- -- 30
2019-07-21 19:00:00 32.2 14 Sudoeste 23 Sudoeste 0 -- -- 28
2019-07-21 18:00:00 32.7 15 Sudoeste 24 Sudoeste 0 -- -- 26
2019-07-21 17:00:00 33 13 Oeste 24 Sudoeste 0 -- -- 27
2019-07-21 16:00:00 32.6 15 Oeste 28 Oeste 0 -- -- 28
2019-07-21 15:00:00 32.4 15 Oeste 30 Oeste 0 -- -- 28
2019-07-21 14:00:00 32 18 Oeste 28 Oeste 0 -- -- 29
2019-07-21 13:00:00 31.7 14 Oeste 22 Sudoeste 0 -- -- 28
2019-07-21 12:00:00 30 12 Oeste 19 Oeste 0 -- -- 31
2019-07-21 11:00:00 26.5 8 Oeste 14 Sudoeste 0 -- -- 38
2019-07-21 10:00:00 21.9 10 Sudoeste 18 Sudoeste 0 -- -- 53
2019-07-21 09:00:00 16.5 11 Sudoeste 21 Sudoeste 0 -- -- 69
2019-07-21 08:00:00 13.5 12 Sudoeste 19 Sudoeste 0 -- -- 73
2019-07-21 07:00:00 12.3 8 Sudoeste 14 Oeste 0 -- -- 78
2019-07-21 06:00:00 13.7 11 Sudoeste 20 Sudoeste 0 -- -- 71
2019-07-21 05:00:00 13.4 9 Sudoeste 14 Sudoeste 0 -- -- 71
2019-07-21 04:00:00 13.6 7 Oeste 12 Sudoeste 0 -- -- 71
2019-07-21 03:00:00 14.4 6 Oeste 12 Oeste 0 -- -- 69
2019-07-21 02:00:00 15.7 3 Oeste 11 Sudoeste 0 -- -- 62
2019-07-21 01:00:00 16.6 6 Oeste 11 Sudoeste 0 -- -- 61
2019-07-21 00:00:00 18.1 4 Sudoeste 13 Oeste 0 -- -- 58